createdAt,value
2017-05-14T00:00:20.061Z,55.07
2017-05-14T00:01:30.330Z,55.07
2017-05-14T00:02:40.593Z,55.35
2017-05-14T00:03:50.861Z,55.26
2017-05-14T00:05:00.818Z,55.65
2017-05-14T00:06:10.446Z,55.16
2017-05-14T00:07:20.079Z,54.68
2017-05-14T00:08:30.027Z,55.35
2017-05-14T00:09:40.287Z,54.68
2017-05-14T00:10:49.931Z,54.87
2017-05-14T00:11:59.884Z,54.58
2017-05-14T00:13:10.143Z,55.35
2017-05-14T00:14:20.097Z,55.16
2017-05-14T00:15:29.733Z,55.83
2017-05-14T00:16:39.996Z,54.78
2017-05-14T00:17:49.948Z,55.07
2017-05-14T00:19:00.216Z,54.97
2017-05-14T00:20:10.179Z,55.45
2017-05-14T00:21:20.133Z,55.45
2017-05-14T00:22:30.096Z,55.16
2017-05-14T00:23:40.050Z,55.26
2017-05-14T00:24:49.375Z,55.55
2017-05-14T00:25:59.640Z,55.65
2017-05-14T00:27:09.602Z,55.74
2017-05-14T00:28:19.603Z,55.83
2017-05-14T00:29:29.605Z,55.35
2017-05-14T00:30:39.552Z,55.26
2017-05-14T00:31:49.817Z,55.83
2017-05-14T00:33:00.071Z,55.26
2017-05-14T00:34:09.711Z,54.68
2017-05-14T00:35:19.347Z,55.55
2017-05-14T00:36:29.619Z,55.07
2017-05-14T00:37:39.572Z,55.26
2017-05-14T00:38:49.832Z,55.35
2017-05-14T00:40:00.101Z,55.35
2017-05-14T00:41:10.053Z,55.45
2017-05-14T00:42:19.694Z,55.07
2017-05-14T00:43:29.959Z,55.83
2017-05-14T00:44:39.919Z,55.07
2017-05-14T00:45:50.183Z,55.45
2017-05-14T00:47:00.137Z,55.65
2017-05-14T00:48:10.084Z,55.55
2017-05-14T00:49:20.357Z,55.55
2017-05-14T00:50:30.622Z,55.45
2017-05-14T00:51:40.263Z,55.16
2017-05-14T00:52:50.212Z,54.97
2017-05-14T00:54:00.158Z,54.78
2017-05-14T00:55:09.796Z,54.97
2017-05-14T00:56:19.438Z,54.97
2017-05-14T00:57:29.077Z,55.65
2017-05-14T00:58:39.033Z,55.74
2017-05-14T00:59:48.670Z,54.97
2017-05-14T01:00:58.932Z,55.35
2017-05-14T01:02:08.885Z,55.26
2017-05-14T01:03:18.843Z,55.74
2017-05-14T01:04:29.107Z,55.35
2017-05-14T01:05:39.378Z,55.65
2017-05-14T01:06:49.025Z,55.26
2017-05-14T01:07:58.980Z,54.78
2017-05-14T01:09:09.261Z,55.65
2017-05-14T01:10:19.525Z,55.45
2017-05-14T01:11:29.788Z,55.65
2017-05-14T01:12:39.424Z,55.35
2017-05-14T01:13:49.696Z,55.65
2017-05-14T01:14:59.647Z,55.07
2017-05-14T01:16:09.910Z,54.68
2017-05-14T01:17:19.908Z,55.07
2017-05-14T01:18:30.170Z,55.55
2017-05-14T01:19:40.439Z,55.07
2017-05-14T01:20:50.709Z,55.35
2017-05-14T01:22:00.657Z,54.87
2017-05-14T01:23:10.300Z,55.07
2017-05-14T01:24:20.573Z,54.49
2017-05-14T01:25:30.521Z,55.16
2017-05-14T01:26:40.480Z,55.74
2017-05-14T01:27:50.434Z,55.26
2017-05-14T01:29:00.405Z,55.26
2017-05-14T01:30:10.357Z,55.26
2017-05-14T01:31:19.679Z,54.97
2017-05-14T01:32:29.631Z,54.68
2017-05-14T01:33:39.947Z,54.97
2017-05-14T01:34:50.220Z,55.16
2017-05-14T01:36:00.484Z,55.55
2017-05-14T01:37:10.430Z,55.07
2017-05-14T01:38:20.068Z,54.97
2017-05-14T01:39:30.328Z,55.55
2017-05-14T01:40:40.600Z,55.45
2017-05-14T01:41:50.547Z,55.45
2017-05-14T01:43:00.813Z,55.35
2017-05-14T01:44:10.769Z,55.45
2017-05-14T01:45:21.039Z,55.16
2017-05-14T01:46:30.995Z,54.49
2017-05-14T01:47:41.272Z,55.07
2017-05-14T01:48:51.538Z,54.97
2017-05-14T01:50:01.178Z,55.65
2017-05-14T01:51:11.446Z,55.65
2017-05-14T01:52:21.399Z,55.55
2017-05-14T01:53:31.670Z,55.26
2017-05-14T01:54:41.938Z,55.35
2017-05-14T01:55:51.590Z,54.87
2017-05-14T01:57:01.233Z,54.78
2017-05-14T01:58:10.558Z,54.2
2017-05-14T01:59:20.196Z,54.68
2017-05-14T02:00:30.146Z,54.97
2017-05-14T02:01:40.413Z,55.26
2017-05-14T02:02:50.682Z,55.07
2017-05-14T02:04:00.943Z,55.35
2017-05-14T02:05:10.575Z,55.26
2017-05-14T02:06:20.844Z,55.26
2017-05-14T02:07:30.799Z,54.68
2017-05-14T02:08:40.761Z,55.16
2017-05-14T02:09:50.719Z,55.26
2017-05-14T02:11:00.980Z,55.16
2017-05-14T02:12:10.941Z,55.65
2017-05-14T02:13:21.206Z,55.55
2017-05-14T02:14:31.164Z,55.26
2017-05-14T02:15:41.119Z,54.87
2017-05-14T02:16:51.076Z,54.49
2017-05-14T02:18:00.712Z,55.16
2017-05-14T02:19:10.394Z,55.35
2017-05-14T02:20:20.671Z,55.83
2017-05-14T02:21:30.928Z,55.74
2017-05-14T02:22:41.200Z,55.35
2017-05-14T02:23:51.468Z,55.35
2017-05-14T02:25:01.420Z,55.74
2017-05-14T02:26:11.685Z,55.07
2017-05-14T02:27:21.962Z,55.81
2017-05-14T02:28:31.920Z,55.55
2017-05-14T02:29:42.196Z,55.26
2017-05-14T02:30:52.152Z,55.16
2017-05-14T02:32:02.418Z,55.16
2017-05-14T02:33:12.373Z,55.55
2017-05-14T02:34:22.010Z,55.62
2017-05-14T02:35:32.281Z,55.35
2017-05-14T02:36:42.236Z,55.35
2017-05-14T02:37:52.198Z,55.07
2017-05-14T02:39:02.508Z,54.56
2017-05-14T02:40:12.146Z,55.45
2017-05-14T02:41:22.412Z,55.45
2017-05-14T02:42:32.367Z,55.45
2017-05-14T02:43:42.633Z,55.65
2017-05-14T02:44:52.602Z,55.16
2017-05-14T02:46:02.873Z,54.87
2017-05-14T02:47:12.825Z,54.87
2017-05-14T02:48:22.457Z,55.07
2017-05-14T02:49:32.409Z,55.55
2017-05-14T02:50:42.359Z,55.35
2017-05-14T02:51:51.998Z,55.45
2017-05-14T02:53:02.262Z,54.87
2017-05-14T02:54:12.530Z,55.74
2017-05-14T02:55:22.224Z,55.23
2017-05-14T02:56:32.491Z,55.52
2017-05-14T02:57:42.764Z,55.13
2017-05-14T02:58:52.745Z,55.71
2017-05-14T03:00:03.010Z,55.13
2017-05-14T03:01:12.968Z,54.85
2017-05-14T03:02:23.237Z,54.49
2017-05-14T03:03:33.501Z,55.13
2017-05-14T03:04:43.775Z,55.71
2017-05-14T03:05:53.725Z,55.52
2017-05-14T03:07:03.677Z,55.43
2017-05-14T03:08:13.315Z,55.43
2017-05-14T03:09:23.298Z,55.52
2017-05-14T03:10:33.257Z,55.33
2017-05-14T03:11:43.527Z,55.55
2017-05-14T03:12:53.796Z,55.16
2017-05-14T03:14:04.124Z,55.43
2017-05-14T03:15:13.759Z,54.94
2017-05-14T03:16:24.024Z,55.33
2017-05-14T03:17:34.289Z,54.94
2017-05-14T03:18:44.250Z,55.62
2017-05-14T03:19:54.515Z,55.45
2017-05-14T03:21:04.464Z,55.26
2017-05-14T03:22:14.739Z,55.52
2017-05-14T03:23:25.006Z,55.33
2017-05-14T03:24:34.961Z,55.07
2017-05-14T03:25:44.960Z,55.23
2017-05-14T03:26:54.917Z,54.85
2017-05-14T03:28:04.875Z,54.75
2017-05-14T03:29:14.827Z,54.85
2017-05-14T03:30:24.790Z,54.94
2017-05-14T03:31:35.053Z,54.85
2017-05-14T03:32:45.315Z,55.33
2017-05-14T03:33:55.270Z,55.23
2017-05-14T03:35:04.912Z,55.62
2017-05-14T03:36:15.172Z,55.52
2017-05-14T03:37:25.436Z,55.71
2017-05-14T03:38:35.391Z,55.33
2017-05-14T03:39:45.657Z,55.62
2017-05-14T03:40:55.615Z,55.43
2017-05-14T03:42:05.569Z,55.52
2017-05-14T03:43:15.836Z,55.43
2017-05-14T03:44:25.486Z,55.23
2017-05-14T03:45:35.749Z,55.33
2017-05-14T03:46:45.704Z,55.62
2017-05-14T03:47:55.966Z,55.43
2017-05-14T03:49:05.919Z,55.43
2017-05-14T03:50:15.875Z,55.33
2017-05-14T03:51:26.140Z,54.85
2017-05-14T03:52:36.404Z,54.94
2017-05-14T03:53:46.362Z,55.23
2017-05-14T03:54:56.008Z,55.52
2017-05-14T03:56:05.961Z,55.81
2017-05-14T03:57:15.910Z,55.13
2017-05-14T03:58:26.177Z,55.52
2017-05-14T03:59:36.171Z,55.04
2017-05-14T04:00:46.130Z,55.04
2017-05-14T04:01:56.394Z,55.81
2017-05-14T04:03:06.659Z,55.52
2017-05-14T04:04:16.293Z,55.43
2017-05-14T04:05:26.239Z,55.43
2017-05-14T04:06:36.199Z,55.52
2017-05-14T04:07:46.157Z,55.43
2017-05-14T04:08:56.112Z,55.04
2017-05-14T04:10:06.382Z,54.94
2017-05-14T04:11:16.021Z,55.23
2017-05-14T04:12:25.980Z,55.62
2017-05-14T04:13:35.937Z,55.65
2017-05-14T04:14:45.898Z,54.94
2017-05-14T04:15:56.167Z,54.94
2017-05-14T04:17:06.117Z,55.13
2017-05-14T04:18:16.069Z,54.85
2017-05-14T04:19:26.340Z,55.04
2017-05-14T04:20:36.606Z,55.13
2017-05-14T04:21:46.871Z,54.97
2017-05-14T04:22:57.130Z,55.43
2017-05-14T04:24:07.079Z,55.04
2017-05-14T04:25:17.037Z,55.04
2017-05-14T04:26:26.987Z,54.94
2017-05-14T04:27:37.264Z,54.85
2017-05-14T04:28:47.222Z,54.56
2017-05-14T04:29:57.490Z,54.94
2017-05-14T04:31:07.444Z,55.04
2017-05-14T04:32:17.396Z,55.04
2017-05-14T04:33:27.663Z,55.23
2017-05-14T04:34:37.926Z,54.94
2017-05-14T04:35:48.235Z,54.65
2017-05-14T04:36:58.497Z,55.33
2017-05-14T04:38:08.772Z,54.56
2017-05-14T04:39:18.727Z,54.94
2017-05-14T04:40:28.687Z,54.65
2017-05-14T04:41:38.955Z,54.56
2017-05-14T04:42:48.597Z,54.56
2017-05-14T04:43:58.865Z,54.85
2017-05-14T04:45:09.136Z,54.65
2017-05-14T04:46:18.767Z,54.75
2017-05-14T04:47:28.718Z,55.13
2017-05-14T04:48:38.373Z,54.46
2017-05-14T04:49:48.328Z,54.65
2017-05-14T04:50:58.281Z,54.56
2017-05-14T04:52:08.553Z,54.65
2017-05-14T04:53:18.507Z,54.85
2017-05-14T04:54:28.770Z,54.85
2017-05-14T04:55:38.724Z,54.49
2017-05-14T04:56:48.988Z,53.88
2017-05-14T04:57:58.934Z,54.17
2017-05-14T04:59:08.575Z,53.98
2017-05-14T05:00:18.556Z,54.65
2017-05-14T05:01:28.814Z,54.2
2017-05-14T05:02:39.087Z,54.46
2017-05-14T05:03:49.370Z,54.56
2017-05-14T05:04:59.650Z,54.17
2017-05-14T05:06:09.913Z,53.88
2017-05-14T05:07:20.176Z,53.62
2017-05-14T05:08:30.134Z,54
2017-05-14T05:09:40.082Z,54.3
2017-05-14T05:10:50.379Z,53.62
2017-05-14T05:12:00.329Z,53.91
2017-05-14T05:13:10.595Z,53.62
2017-05-14T05:14:20.551Z,53.23
2017-05-14T05:15:30.810Z,53.53
2017-05-14T05:16:40.759Z,53.91
2017-05-14T05:17:50.710Z,53.53
2017-05-14T05:19:00.974Z,54
2017-05-14T05:20:11.244Z,54.1
2017-05-14T05:21:21.190Z,53.53
2017-05-14T05:22:31.455Z,54.39
2017-05-14T05:23:41.714Z,54.2
2017-05-14T05:24:51.700Z,53.91
2017-05-14T05:26:01.967Z,54.39
2017-05-14T05:27:11.919Z,54.1
2017-05-14T05:28:22.191Z,53.91
2017-05-14T05:29:32.512Z,53.91
2017-05-14T05:30:42.774Z,54
2017-05-14T05:31:53.046Z,53.62
2017-05-14T05:33:02.998Z,53.91
2017-05-14T05:34:13.311Z,54
2017-05-14T05:35:22.999Z,53.72
2017-05-14T05:36:32.950Z,54
2017-05-14T05:37:42.901Z,54.1
2017-05-14T05:38:53.181Z,54.1
2017-05-14T05:40:03.445Z,53.43
2017-05-14T05:41:13.398Z,53.53
2017-05-14T05:42:23.665Z,54.2
2017-05-14T05:43:33.680Z,54
2017-05-14T05:44:43.320Z,54.2
2017-05-14T05:45:52.959Z,54
2017-05-14T05:47:03.224Z,53.91
2017-05-14T05:48:13.557Z,53.62
2017-05-14T05:49:23.823Z,54
2017-05-14T05:50:33.768Z,53.91
2017-05-14T05:51:44.039Z,54.39
2017-05-14T05:52:54.656Z,54.3
2017-05-14T05:54:04.859Z,54
2017-05-14T05:55:14.502Z,54.1
2017-05-14T05:56:24.769Z,54.39
2017-05-14T05:57:35.035Z,54.49
2017-05-14T05:58:44.988Z,54.2
2017-05-14T05:59:55.316Z,54.1
2017-05-14T06:01:05.599Z,54.1
2017-05-14T06:02:15.238Z,54.3
2017-05-14T06:03:25.499Z,54.3
2017-05-14T06:04:35.766Z,54.3
2017-05-14T06:05:45.718Z,53.81
2017-05-14T06:06:55.660Z,53.43
2017-05-14T06:08:05.921Z,53.53
2017-05-14T06:09:16.189Z,53.81
2017-05-14T06:10:26.139Z,53.81
2017-05-14T06:11:36.092Z,54.2
2017-05-14T06:12:46.047Z,53.53
2017-05-14T06:13:55.682Z,53.43
2017-05-14T06:15:05.626Z,53.43
2017-05-14T06:16:15.582Z,53.72
2017-05-14T06:17:25.849Z,53.81
2017-05-14T06:18:35.794Z,54.1
2017-05-14T06:19:46.069Z,54.39
2017-05-14T06:20:56.026Z,54.39
2017-05-14T06:22:06.307Z,54.2
2017-05-14T06:23:15.936Z,54
2017-05-14T06:24:25.889Z,54.68
2017-05-14T06:25:35.841Z,54.58
2017-05-14T06:26:45.795Z,54.39
2017-05-14T06:27:55.431Z,54.49
2017-05-14T06:29:05.708Z,53.91
2017-05-14T06:30:15.971Z,53.53
2017-05-14T06:31:25.918Z,54.58
2017-05-14T06:32:35.867Z,54.39
2017-05-14T06:33:46.135Z,54.3
2017-05-14T06:34:56.085Z,54.1
2017-05-14T06:36:05.716Z,54.58
2017-05-14T06:37:15.660Z,54.13
2017-05-14T06:38:25.292Z,54.42
2017-05-14T06:39:35.556Z,54.22
2017-05-14T06:40:45.508Z,53.81
2017-05-14T06:41:55.774Z,54.52
2017-05-14T06:43:05.729Z,54.03
2017-05-14T06:44:15.997Z,53.55
2017-05-14T06:45:25.632Z,54.22
2017-05-14T06:46:34.642Z,54.13
2017-05-14T06:47:44.592Z,53.36
2017-05-14T06:48:54.862Z,53.36
2017-05-14T06:50:04.812Z,54.13
2017-05-14T06:51:14.451Z,54.39
2017-05-14T06:52:24.718Z,55.45
2017-05-14T06:53:34.984Z,54.52
2017-05-14T06:54:45.252Z,54.61
2017-05-14T06:55:55.517Z,54.13
2017-05-14T06:57:05.800Z,54.42
2017-05-14T06:58:16.069Z,54.68
2017-05-14T06:59:26.334Z,54.9
2017-05-14T07:00:36.606Z,55.07
2017-05-14T07:01:46.244Z,55.45
2017-05-14T07:02:56.508Z,55.96
2017-05-14T07:04:06.505Z,54.8
2017-05-14T07:05:16.766Z,55.29
2017-05-14T07:06:27.034Z,54.71
2017-05-14T07:07:37.001Z,55.29
2017-05-14T07:08:47.758Z,55
2017-05-14T07:09:58.025Z,54.9
2017-05-14T07:11:08.295Z,54.71
2017-05-14T07:12:18.240Z,54.71
2017-05-14T07:13:28.948Z,54.61
2017-05-14T07:14:39.332Z,54.71
2017-05-14T07:15:49.304Z,54.8
2017-05-14T07:16:59.569Z,54.8
2017-05-14T07:18:09.207Z,55
2017-05-14T07:19:18.843Z,54.61
2017-05-14T07:20:28.869Z,55.87
2017-05-14T07:21:38.814Z,55
2017-05-14T07:22:48.770Z,55
2017-05-14T07:23:58.407Z,54.71
2017-05-14T07:25:08.354Z,55
2017-05-14T07:26:18.310Z,55.22
2017-05-14T07:27:28.258Z,55.29
2017-05-14T07:28:37.891Z,55.02
2017-05-14T07:29:48.154Z,55.22
2017-05-14T07:30:58.422Z,55.41
2017-05-14T07:32:08.685Z,54.83
2017-05-14T07:33:18.320Z,55.31
2017-05-14T07:34:28.586Z,55.7
2017-05-14T07:35:38.224Z,54.74
2017-05-14T07:36:48.493Z,54.74
2017-05-14T07:37:58.447Z,54.74
2017-05-14T07:39:08.717Z,55.02
2017-05-14T07:40:18.666Z,54.64
2017-05-14T07:41:28.307Z,54.93
2017-05-14T07:42:38.259Z,54.64
2017-05-14T07:43:48.522Z,54.74
2017-05-14T07:44:58.830Z,54.74
2017-05-14T07:46:09.101Z,54.61
2017-05-14T07:47:19.053Z,54.71
2017-05-14T07:48:28.999Z,54.32
2017-05-14T07:49:38.638Z,54.74
2017-05-14T07:50:48.900Z,54.83
2017-05-14T07:51:59.180Z,54.71
2017-05-14T07:53:09.443Z,54.61
2017-05-14T07:54:19.399Z,54.61
2017-05-14T07:55:29.669Z,55
2017-05-14T07:56:39.934Z,54.74
2017-05-14T07:57:49.256Z,55
2017-05-14T07:58:59.222Z,55
2017-05-14T08:00:09.499Z,54.42
2017-05-14T08:01:19.454Z,54.61
2017-05-14T08:02:29.405Z,54.52
2017-05-14T08:03:39.397Z,54.61
2017-05-14T08:04:49.347Z,54.71
2017-05-14T08:05:59.294Z,54.52
2017-05-14T08:07:08.936Z,54.52
2017-05-14T08:08:18.574Z,54.71
2017-05-14T08:09:28.212Z,54.42
2017-05-14T08:10:38.475Z,54.13
2017-05-14T08:11:48.114Z,54.32
2017-05-14T08:12:58.378Z,54.13
2017-05-14T08:14:08.644Z,54.22
2017-05-14T08:15:18.285Z,53.94
2017-05-14T08:16:28.550Z,53.94
2017-05-14T08:17:38.503Z,54.42
2017-05-14T08:18:48.770Z,54.13
2017-05-14T08:19:59.032Z,54.13
2017-05-14T08:21:09.311Z,54.03
2017-05-14T08:22:19.582Z,53.94
2017-05-14T08:23:29.871Z,54.32
2017-05-14T08:24:40.134Z,54.16
2017-05-14T08:25:50.098Z,54.22
2017-05-14T08:27:00.359Z,53.94
2017-05-14T08:28:09.995Z,53.55
2017-05-14T08:29:20.258Z,53.74
2017-05-14T08:30:29.897Z,53.65
2017-05-14T08:31:39.535Z,53.84
2017-05-14T08:32:49.175Z,53.84
2017-05-14T08:33:59.439Z,53.45
2017-05-14T08:35:09.390Z,54.03
2017-05-14T08:36:19.027Z,53.45
2017-05-14T08:37:29.299Z,53.84
2017-05-14T08:38:39.576Z,53.84
2017-05-14T08:39:49.884Z,53.45
2017-05-14T08:41:00.150Z,53.65
2017-05-14T08:42:10.468Z,53.65
2017-05-14T08:43:20.413Z,53.94
2017-05-14T08:44:30.364Z,53.74
2017-05-14T08:45:40.025Z,53.65
2017-05-14T08:46:50.293Z,53.74
2017-05-14T08:48:00.558Z,53.17
2017-05-14T08:49:10.502Z,53.45
2017-05-14T08:50:20.457Z,53.65
2017-05-14T08:51:30.095Z,53.45
2017-05-14T08:52:40.052Z,53.45
2017-05-14T08:53:50.318Z,53.36
2017-05-14T08:55:00.583Z,53.27
2017-05-14T08:56:10.527Z,53.17
2017-05-14T08:57:20.483Z,53.36
2017-05-14T08:58:30.751Z,53.55
2017-05-14T08:59:40.070Z,53.45
2017-05-14T09:00:50.030Z,53.55
2017-05-14T09:02:00.304Z,53.55
2017-05-14T09:03:10.575Z,53.36
2017-05-14T09:04:20.855Z,53.36
2017-05-14T09:05:30.497Z,53.36
2017-05-14T09:06:40.137Z,53.07
2017-05-14T09:07:49.463Z,53.36
2017-05-14T09:08:59.733Z,53.45
2017-05-14T09:10:10.000Z,53.58
2017-05-14T09:11:20.309Z,53.96
2017-05-14T09:12:30.573Z,54.71
2017-05-14T09:13:40.527Z,54.71
2017-05-14T09:14:50.224Z,54.16
2017-05-14T09:16:00.500Z,54.52
2017-05-14T09:17:10.138Z,54.52
2017-05-14T09:18:20.407Z,54.54
2017-05-14T09:19:30.672Z,54.61
2017-05-14T09:20:40.623Z,54.71
2017-05-14T09:21:50.891Z,54.54
2017-05-14T09:23:00.536Z,54.22
2017-05-14T09:24:10.807Z,53.96
2017-05-14T09:25:20.759Z,54.9
2017-05-14T09:26:30.708Z,53.94
2017-05-14T09:27:40.705Z,54.71
2017-05-14T09:28:50.654Z,54.83
2017-05-14T09:30:00.604Z,55.12
2017-05-14T09:31:10.550Z,54.83
2017-05-14T09:32:20.816Z,54.83
2017-05-14T09:33:30.764Z,54.54
2017-05-14T09:34:40.709Z,53.96
2017-05-14T09:35:50.972Z,54.74
2017-05-14T09:37:01.234Z,54.52
2017-05-14T09:38:11.185Z,54.42
2017-05-14T09:39:21.138Z,54.42
2017-05-14T09:40:31.398Z,54.9
2017-05-14T09:41:41.350Z,54.9
2017-05-14T09:42:51.302Z,54.71
2017-05-14T09:44:01.563Z,54.74
2017-05-14T09:45:11.828Z,54.35
2017-05-14T09:46:21.775Z,53.94
2017-05-14T09:47:31.773Z,53.94
2017-05-14T09:48:41.094Z,53.94
2017-05-14T09:49:51.048Z,54.61
2017-05-14T09:51:01.315Z,54.03
2017-05-14T09:52:10.634Z,54.42
2017-05-14T09:53:20.904Z,54.22
2017-05-14T09:54:31.174Z,54.42
2017-05-14T09:55:41.430Z,54.61
2017-05-14T09:56:51.709Z,54.42
2017-05-14T09:58:01.353Z,53.94
2017-05-14T09:59:10.989Z,54.13
2017-05-14T10:00:20.946Z,53.74
2017-05-14T10:01:31.213Z,53.94
2017-05-14T10:02:41.156Z,54.42
2017-05-14T10:03:51.419Z,54.13
2017-05-14T10:05:01.370Z,54.13
2017-05-14T10:06:11.324Z,54.03
2017-05-14T10:07:20.967Z,54.13
2017-05-14T10:08:31.226Z,54.13
2017-05-14T10:09:41.488Z,54.22
2017-05-14T10:10:51.442Z,54.32
2017-05-14T10:12:01.920Z,53.45
2017-05-14T10:13:11.874Z,54.03
2017-05-14T10:14:21.824Z,54.22
2017-05-14T10:15:32.089Z,54.42
2017-05-14T10:16:41.756Z,54.22
2017-05-14T10:17:51.396Z,54.06
2017-05-14T10:19:01.666Z,53.58
2017-05-14T10:20:11.304Z,54.16
2017-05-14T10:21:21.581Z,53.96
2017-05-14T10:22:31.846Z,53.94
2017-05-14T10:23:41.805Z,54.03
2017-05-14T10:24:52.066Z,53.65
2017-05-14T10:26:02.333Z,54.42
2017-05-14T10:27:11.655Z,53.48
2017-05-14T10:28:21.609Z,53.55
2017-05-14T10:29:31.879Z,54.16
2017-05-14T10:30:42.147Z,53.58
2017-05-14T10:31:52.101Z,53.67
2017-05-14T10:33:01.737Z,53.96
2017-05-14T10:34:12.008Z,53.67
2017-05-14T10:35:22.271Z,53.48
2017-05-14T10:36:32.540Z,53.58
2017-05-14T10:37:42.499Z,53.29
2017-05-14T10:38:52.760Z,53
2017-05-14T10:40:03.030Z,52.33
2017-05-14T10:41:12.364Z,52.23
2017-05-14T10:42:22.633Z,51.94
2017-05-14T10:43:32.894Z,51.56
2017-05-14T10:44:42.849Z,51.56
2017-05-14T10:45:52.811Z,50.69
2017-05-14T10:47:03.072Z,51.36
2017-05-14T10:48:12.715Z,50.69
2017-05-14T10:49:22.672Z,51.56
2017-05-14T10:50:32.623Z,52.23
2017-05-14T10:51:42.892Z,52.91
2017-05-14T10:52:53.159Z,53
2017-05-14T10:54:03.119Z,52.81
2017-05-14T10:55:13.075Z,53
2017-05-14T10:56:23.366Z,53.58
2017-05-14T10:57:33.308Z,53.09
2017-05-14T10:58:43.575Z,53.19
2017-05-14T10:59:54.067Z,53.48
2017-05-14T11:01:04.755Z,53.58
2017-05-14T11:02:15.035Z,53.19
2017-05-14T11:03:25.025Z,53.87
2017-05-14T11:04:35.296Z,53.77
2017-05-14T11:05:44.644Z,53.48
2017-05-14T11:06:54.911Z,54.16
2017-05-14T11:08:05.184Z,53.96
2017-05-14T11:09:15.445Z,54.64
2017-05-14T11:10:25.396Z,54.44
2017-05-14T11:11:35.350Z,54.25
2017-05-14T11:12:45.615Z,54.83
2017-05-14T11:13:55.590Z,54.54
2017-05-14T11:15:05.538Z,54.54
2017-05-14T11:16:15.811Z,54.54
2017-05-14T11:17:26.095Z,54.44
2017-05-14T11:18:35.729Z,55.31
2017-05-14T11:19:45.368Z,55.22
2017-05-14T11:20:55.634Z,55.99
2017-05-14T11:22:05.586Z,55.89
2017-05-14T11:23:15.536Z,55.89
2017-05-14T11:24:25.800Z,55.6
2017-05-14T11:25:35.433Z,55.99
2017-05-14T11:26:45.695Z,56.37
2017-05-14T11:27:55.641Z,56.18
2017-05-14T11:29:05.905Z,56.47
2017-05-14T11:30:16.163Z,56.57
2017-05-14T11:31:26.114Z,56.57
2017-05-14T11:32:36.380Z,57.72
2017-05-14T11:33:46.330Z,57.72
2017-05-14T11:34:56.608Z,57.72
2017-05-14T11:36:06.874Z,57.72
2017-05-14T11:37:16.828Z,56.95
2017-05-14T11:38:27.100Z,57.62
2017-05-14T11:39:37.051Z,57.43
2017-05-14T11:40:46.686Z,57.14
2017-05-14T11:41:56.637Z,57.72
2017-05-14T11:43:06.921Z,57.72
2017-05-14T11:44:16.870Z,57.82
2017-05-14T11:45:26.825Z,56.95
2017-05-14T11:46:37.095Z,57.14
2017-05-14T11:47:46.734Z,56.76
2017-05-14T11:48:56.066Z,56.95
2017-05-14T11:50:05.704Z,57.14
2017-05-14T11:51:15.340Z,57.14
2017-05-14T11:52:25.628Z,57.34
2017-05-14T11:53:35.898Z,57.43
2017-05-14T11:54:45.535Z,56.27
2017-05-14T11:55:55.171Z,56.66
2017-05-14T11:57:05.128Z,57.14
2017-05-14T11:58:15.076Z,56.66
2017-05-14T11:59:25.024Z,56.76
2017-05-14T12:00:34.663Z,56.57
2017-05-14T12:01:44.618Z,56.95
2017-05-14T12:02:54.249Z,56.57
2017-05-14T12:04:04.199Z,56.57
2017-05-14T12:05:14.157Z,56.27
2017-05-14T12:06:23.483Z,57.05
2017-05-14T12:07:33.749Z,56.57
2017-05-14T12:08:44.017Z,56.57
2017-05-14T12:09:54.282Z,56.47
2017-05-14T12:11:04.544Z,56.85
2017-05-14T12:12:14.809Z,56.37
2017-05-14T12:13:24.757Z,56.57
2017-05-14T12:14:35.022Z,56.27
2017-05-14T12:15:45.028Z,56.57
2017-05-14T12:16:54.668Z,55.99
2017-05-14T12:18:04.938Z,56.47
2017-05-14T12:19:15.198Z,56.47
2017-05-14T12:20:24.839Z,55.89
2017-05-14T12:21:35.147Z,56.18
2017-05-14T12:22:45.420Z,56.37
2017-05-14T12:23:55.683Z,55.89
2017-05-14T12:25:05.315Z,56.57
2017-05-14T12:26:15.265Z,56.18
2017-05-14T12:27:25.543Z,55.99
2017-05-14T12:28:35.499Z,56.27
2017-05-14T12:29:45.772Z,55.79
2017-05-14T12:30:56.036Z,55.99
2017-05-14T12:32:06.303Z,55.89
2017-05-14T12:33:16.257Z,55.7
2017-05-14T12:34:26.523Z,56.09
2017-05-14T12:35:36.808Z,55.7
2017-05-14T12:36:46.763Z,55.89
2017-05-14T12:37:57.029Z,55.7
2017-05-14T12:39:06.984Z,55.51
2017-05-14T12:40:16.620Z,55.79
2017-05-14T12:41:26.569Z,55.51
2017-05-14T12:42:36.522Z,55.22
2017-05-14T12:43:46.786Z,55.99
2017-05-14T12:44:57.051Z,55.6
2017-05-14T12:46:06.687Z,56.18
2017-05-14T12:47:16.957Z,55.89
2017-05-14T12:48:26.907Z,56.09
2017-05-14T12:49:36.864Z,55.6
2017-05-14T12:50:46.816Z,55.89
2017-05-14T12:51:57.086Z,55.31
2017-05-14T12:53:07.031Z,55.89
2017-05-14T12:54:16.663Z,55.7
2017-05-14T12:55:26.932Z,55.51
2017-05-14T12:56:36.888Z,55.6
2017-05-14T12:57:47.153Z,55.22
2017-05-14T12:58:57.437Z,55.6
2017-05-14T13:00:06.787Z,55.6
2017-05-14T13:01:16.742Z,55.51
2017-05-14T13:02:26.737Z,55.31
2017-05-14T13:03:37.001Z,55.51
2017-05-14T13:04:46.684Z,55.41
2017-05-14T13:05:56.958Z,55.41
2017-05-14T13:07:06.909Z,55.31
2017-05-14T13:08:16.861Z,55.51
2017-05-14T13:09:26.810Z,55.31
2017-05-14T13:10:37.106Z,55.6
2017-05-14T13:11:46.748Z,55.12
2017-05-14T13:12:57.017Z,55.79
2017-05-14T13:14:06.964Z,55.79
2017-05-14T13:15:16.921Z,55.12
2017-05-14T13:16:27.183Z,55.51
2017-05-14T13:17:37.449Z,56.09
2017-05-14T13:18:47.395Z,56.18
2017-05-14T13:19:57.668Z,55.41
2017-05-14T13:21:07.626Z,55.12
2017-05-14T13:22:17.900Z,55.31
2017-05-14T13:23:28.171Z,55.22
2017-05-14T13:24:38.431Z,55.7
2017-05-14T13:25:48.750Z,55.22
2017-05-14T13:26:59.014Z,55.22
2017-05-14T13:28:09.277Z,55.02
2017-05-14T13:29:18.913Z,55.12
2017-05-14T13:30:28.870Z,54.83
2017-05-14T13:31:39.134Z,54.93
2017-05-14T13:32:49.134Z,55.22
2017-05-14T13:33:59.397Z,54.64
2017-05-14T13:35:09.673Z,54.93
2017-05-14T13:36:19.944Z,54.64
2017-05-14T13:37:29.896Z,55.22
2017-05-14T13:38:40.162Z,54.54
2017-05-14T13:39:50.430Z,55.22
2017-05-14T13:41:00.077Z,54.64
2017-05-14T13:42:10.027Z,54.74
2017-05-14T13:43:20.299Z,54.74
2017-05-14T13:44:30.559Z,54.93
2017-05-14T13:45:40.833Z,54.93
2017-05-14T13:46:51.103Z,55.22
2017-05-14T13:48:01.379Z,54.93
2017-05-14T13:49:11.644Z,54.93
2017-05-14T13:50:21.596Z,55.41
2017-05-14T13:51:31.866Z,55.31
2017-05-14T13:52:41.814Z,54.83
2017-05-14T13:53:52.086Z,54.83
2017-05-14T13:55:02.037Z,54.64
2017-05-14T13:56:11.350Z,55.31
2017-05-14T13:57:21.303Z,54.93
2017-05-14T13:58:31.569Z,55.02
2017-05-14T13:59:41.202Z,55.02
2017-05-14T14:00:51.153Z,55.22
2017-05-14T14:02:00.795Z,54.83
2017-05-14T14:03:11.054Z,55.02
2017-05-14T14:04:21.314Z,55.02
2017-05-14T14:05:31.266Z,54.83
2017-05-14T14:06:41.224Z,55.22
2017-05-14T14:07:51.179Z,54.74
2017-05-14T14:09:01.134Z,55.02
2017-05-14T14:10:11.087Z,55.79
2017-05-14T14:11:21.043Z,55.6
2017-05-14T14:12:30.995Z,55.7
2017-05-14T14:13:40.973Z,55.12
2017-05-14T14:14:51.238Z,55.12
2017-05-14T14:16:01.501Z,55.12
2017-05-14T14:17:11.459Z,55.31
2017-05-14T14:18:21.411Z,55.41
2017-05-14T14:19:31.686Z,55.41
2017-05-14T14:20:41.640Z,55.12
2017-05-14T14:21:51.909Z,55.22
2017-05-14T14:23:02.179Z,54.93
2017-05-14T14:24:12.128Z,55.41
2017-05-14T14:25:21.759Z,54.74
2017-05-14T14:26:31.395Z,55.02
2017-05-14T14:27:41.661Z,55.02
2017-05-14T14:28:51.614Z,55.22
2017-05-14T14:30:01.261Z,54.83
2017-05-14T14:31:11.532Z,54.93
2017-05-14T14:32:21.170Z,55.31
2017-05-14T14:33:31.436Z,55.6
2017-05-14T14:34:41.700Z,54.74
2017-05-14T14:35:52.002Z,55.41
2017-05-14T14:37:01.697Z,55.22
2017-05-14T14:38:11.650Z,55.02
2017-05-14T14:39:21.916Z,55.6
2017-05-14T14:40:31.865Z,55.22
2017-05-14T14:41:42.127Z,55.12
2017-05-14T14:42:52.099Z,55.12
2017-05-14T14:44:01.738Z,55.02
2017-05-14T14:45:11.694Z,55.22
2017-05-14T14:46:22.005Z,55.41
2017-05-14T14:47:31.635Z,55.7
2017-05-14T14:48:42.042Z,55.12
2017-05-14T14:49:52.345Z,55.22
2017-05-14T14:51:02.305Z,55.12
2017-05-14T14:52:12.262Z,55.02
2017-05-14T14:53:22.216Z,55.02
2017-05-14T14:54:32.476Z,54.83
2017-05-14T14:55:42.432Z,55.41
2017-05-14T14:56:52.698Z,55.7
2017-05-14T14:58:02.647Z,55.02
2017-05-14T14:59:12.914Z,55.12
2017-05-14T15:00:22.861Z,55.02
2017-05-14T15:01:33.127Z,55.02
2017-05-14T15:02:43.392Z,55.31
2017-05-14T15:03:53.654Z,55.02
2017-05-14T15:05:02.666Z,55.31
2017-05-14T15:06:12.934Z,55.41